createdAt,value
2022-10-12T00:02:56.378Z,61.60
2022-10-12T00:07:58.194Z,59.80
2022-10-12T00:13:00.742Z,54.90
2022-10-12T00:18:02.901Z,58.70
2022-10-12T00:23:04.862Z,56.20
2022-10-12T00:28:07.933Z,59.20
2022-10-12T00:33:09.974Z,57.90
2022-10-12T00:38:11.930Z,58.30
2022-10-12T00:43:26.032Z,57.80
2022-10-12T00:48:28.599Z,55.90
2022-10-12T00:53:38.117Z,55.50
2022-10-12T00:58:55.010Z,56.70
2022-10-12T01:04:07.318Z,54.60
2022-10-12T01:09:09.065Z,53.20
2022-10-12T01:14:11.705Z,54.10
2022-10-12T01:19:34.780Z,53.10
2022-10-12T01:24:46.821Z,51.10
2022-10-12T01:30:31.007Z,49.70
2022-10-12T01:35:40.958Z,52.30
2022-10-12T01:40:55.137Z,52.80
2022-10-12T01:45:56.947Z,53.60
2022-10-12T01:51:03.326Z,53.80
2022-10-12T01:56:21.165Z,53.10
2022-10-12T02:01:50.348Z,52.00
2022-10-12T02:07:04.132Z,49.90
2022-10-12T02:12:22.313Z,49.10
2022-10-12T02:17:24.104Z,48.40
2022-10-12T02:22:35.692Z,46.80
2022-10-12T02:27:43.312Z,50.70
2022-10-12T02:32:56.844Z,48.70
2022-10-12T02:38:09.822Z,45.10
2022-10-12T02:43:18.611Z,44.70
2022-10-12T02:48:23.924Z,42.20
2022-10-12T02:53:33.963Z,43.20
2022-10-12T02:58:49.949Z,41.70
2022-10-12T03:03:51.705Z,39.90
2022-10-12T03:08:57.022Z,43.30
2022-10-12T03:13:59.146Z,36.30
2022-10-12T03:19:00.882Z,38.40
2022-10-12T03:24:03.025Z,37.80
2022-10-12T03:29:05.554Z,40.30
2022-10-12T03:34:07.425Z,37.30
2022-10-12T03:39:09.185Z,39.20
2022-10-12T03:44:10.948Z,34.50
2022-10-12T03:49:12.675Z,41.10
2022-10-12T03:54:14.492Z,38.60
2022-10-12T03:59:16.534Z,41.90
2022-10-12T04:04:24.824Z,40.40
2022-10-12T04:09:26.787Z,38.00
2022-10-12T04:14:28.560Z,38.90
2022-10-12T04:19:30.732Z,41.10
2022-10-12T04:24:32.603Z,43.50
2022-10-12T04:29:34.594Z,42.40
2022-10-12T04:34:36.818Z,44.70
2022-10-12T04:39:38.581Z,43.20
2022-10-12T04:44:40.310Z,43.80
2022-10-12T04:49:42.115Z,42.90
2022-10-12T04:54:43.874Z,37.40
2022-10-12T04:59:45.723Z,36.20
2022-10-12T05:04:47.450Z,41.00
2022-10-12T05:09:49.401Z,46.40
2022-10-12T05:14:51.198Z,47.00
2022-10-12T05:19:52.921Z,54.20
2022-10-12T05:24:54.644Z,58.40
2022-10-12T05:29:56.559Z,66.60
2022-10-12T05:34:58.310Z,57.70
2022-10-12T05:40:07.462Z,53.50
2022-10-12T05:45:09.962Z,50.90
2022-10-12T05:50:12.077Z,54.30
2022-10-12T05:55:13.909Z,53.30
2022-10-12T06:00:15.777Z,52.10
2022-10-12T06:05:17.913Z,51.70
2022-10-12T06:10:19.702Z,52.60
2022-10-12T06:15:21.476Z,47.90
2022-10-12T06:20:23.434Z,49.00
2022-10-12T06:25:25.290Z,48.40
2022-10-12T06:30:27.243Z,46.90
2022-10-12T06:35:28.925Z,44.60
2022-10-12T06:40:30.697Z,44.60
2022-10-12T06:45:32.935Z,46.60
2022-10-12T06:50:35.378Z,45.10
2022-10-12T06:55:40.209Z,44.10
2022-10-12T07:00:42.092Z,43.60
2022-10-12T07:05:59.518Z,42.90
2022-10-12T07:11:04.061Z,43.80
2022-10-12T07:16:06.536Z,44.60
2022-10-12T07:21:08.364Z,41.10
2022-10-12T07:26:30.954Z,47.10
2022-10-12T07:31:43.268Z,48.40
2022-10-12T07:36:58.723Z,44.20
2022-10-12T07:42:01.595Z,45.40
2022-10-12T07:47:03.448Z,47.10
2022-10-12T07:52:05.201Z,46.00
2022-10-12T07:57:07.053Z,44.30
2022-10-12T08:02:11.739Z,43.10
2022-10-12T08:07:13.467Z,34.80
2022-10-12T08:12:15.771Z,35.00
2022-10-12T08:17:17.689Z,23.00
2022-10-12T08:22:19.673Z,25.60
2022-10-12T08:27:21.419Z,29.70
2022-10-12T08:32:23.304Z,31.00
2022-10-12T08:37:25.239Z,27.70
2022-10-12T08:42:44.791Z,25.10
2022-10-12T08:47:52.875Z,21.70
2022-10-12T08:53:06.908Z,21.60
2022-10-12T08:58:44.938Z,18.70
2022-10-12T09:04:09.701Z,21.20
2022-10-12T09:09:40.058Z,20.00
2022-10-12T09:14:45.335Z,19.10
2022-10-12T09:19:47.921Z,19.70
2022-10-12T09:24:51.140Z,20.00
2022-10-12T09:29:57.995Z,20.40
2022-10-12T09:35:17.230Z,20.20
2022-10-12T09:40:33.449Z,12.00
2022-10-12T09:45:36.179Z,13.60
2022-10-12T09:50:59.135Z,13.10
2022-10-12T09:56:24.214Z,12.10
2022-10-12T10:01:29.481Z,12.50
2022-10-12T10:06:31.597Z,8.40
2022-10-12T10:11:33.441Z,10.80
2022-10-12T10:16:48.214Z,10.70
2022-10-12T10:21:49.936Z,11.50
2022-10-12T10:26:59.261Z,10.90
2022-10-12T10:32:29.919Z,10.00
2022-10-12T10:37:33.400Z,8.90
2022-10-12T10:42:35.294Z,7.10
2022-10-12T10:47:46.316Z,9.30
2022-10-12T10:52:58.556Z,7.80
2022-10-12T10:58:12.392Z,6.20
2022-10-12T11:03:28.828Z,6.20
2022-10-12T11:08:33.705Z,4.90
2022-10-12T11:13:44.362Z,5.40
2022-10-12T11:18:54.384Z,4.90
2022-10-12T11:24:12.597Z,4.90
2022-10-12T11:29:18.113Z,5.50
2022-10-12T11:34:23.168Z,5.90
2022-10-12T11:39:33.968Z,5.20
2022-10-12T11:44:43.036Z,5.30
2022-10-12T11:49:55.461Z,4.90
2022-10-12T11:55:24.977Z,5.20
2022-10-12T12:01:21.127Z,5.40
2022-10-12T12:06:43.915Z,5.00
2022-10-12T12:12:13.804Z,4.90
2022-10-12T12:17:28.097Z,4.40
2022-10-12T12:27:56.152Z,4.70
2022-10-12T12:33:26.808Z,5.60
2022-10-12T12:38:31.528Z,6.40
2022-10-12T12:43:33.200Z,5.70
2022-10-12T12:48:47.128Z,5.10
2022-10-12T12:54:15.401Z,5.60
2022-10-12T12:59:56.137Z,5.30
2022-10-12T13:05:27.999Z,5.30
2022-10-12T13:10:42.369Z,4.80
2022-10-12T13:16:02.854Z,4.70
2022-10-12T13:21:08.121Z,5.00
2022-10-12T13:26:15.741Z,5.50
2022-10-12T13:31:27.175Z,6.80
2022-10-12T13:36:46.697Z,6.10
2022-10-12T13:41:51.568Z,6.00
2022-10-12T13:46:59.327Z,5.50
2022-10-12T13:52:24.158Z,6.60
2022-10-12T13:57:37.197Z,7.10
2022-10-12T14:02:38.974Z,7.00
2022-10-12T14:07:44.199Z,6.50
2022-10-12T14:12:53.296Z,5.70
2022-10-12T14:17:55.098Z,5.80
2022-10-12T14:23:01.960Z,5.40
2022-10-12T14:28:06.797Z,5.80
2022-10-12T14:33:21.686Z,5.20
2022-10-12T14:38:35.933Z,5.30
2022-10-12T14:44:10.988Z,5.10
2022-10-12T14:49:20.026Z,5.40
2022-10-12T14:54:22.342Z,6.10
2022-10-12T14:59:24.239Z,5.80
2022-10-12T15:04:25.978Z,5.80
2022-10-12T15:09:27.737Z,6.10
2022-10-12T15:14:29.818Z,6.40
2022-10-12T15:19:32.064Z,6.00
2022-10-12T15:24:34.308Z,6.10
2022-10-12T15:29:36.172Z,5.30
2022-10-12T15:34:46.718Z,6.50
2022-10-12T15:39:49.730Z,9.10
2022-10-12T15:44:51.405Z,25.00
2022-10-12T15:49:53.536Z,28.50
2022-10-12T15:54:57.050Z,20.00
2022-10-12T15:59:58.972Z,13.20
2022-10-12T16:05:06.858Z,6.50
2022-10-12T16:10:13.869Z,7.70
2022-10-12T16:15:24.140Z,6.70
2022-10-12T16:20:27.992Z,8.30
2022-10-12T16:25:33.460Z,9.80
2022-10-12T16:30:35.403Z,18.10
2022-10-12T16:35:40.149Z,17.50
2022-10-12T16:40:56.245Z,28.80
2022-10-12T16:45:57.970Z,32.70
2022-10-12T16:50:59.787Z,30.80
2022-10-12T16:56:02.459Z,23.30
2022-10-12T17:01:12.420Z,25.20
2022-10-12T17:06:14.359Z,19.10
2022-10-12T17:11:18.765Z,19.20
2022-10-12T17:16:49.699Z,26.10
2022-10-12T17:21:52.570Z,33.00
2022-10-12T17:26:55.858Z,54.50
2022-10-12T17:31:58.454Z,40.30
2022-10-12T17:37:06.458Z,56.30
2022-10-12T17:42:08.554Z,56.70
2022-10-12T17:47:12.150Z,63.30
2022-10-12T17:52:14.019Z,63.70
2022-10-12T17:57:16.392Z,50.60
2022-10-12T18:02:18.665Z,61.30
2022-10-12T18:07:20.770Z,49.00
2022-10-12T18:12:29.464Z,55.70
2022-10-12T18:17:34.195Z,57.90
2022-10-12T18:22:36.002Z,68.30
2022-10-12T18:27:37.996Z,74.90
2022-10-12T18:32:39.599Z,127.90
2022-10-12T18:37:41.343Z,163.20
2022-10-12T18:42:49.056Z,104.50
2022-10-12T18:47:51.336Z,77.80
2022-10-12T18:52:56.274Z,80.20
2022-10-12T18:57:58.035Z,71.40
2022-10-12T19:03:00.352Z,73.90
2022-10-12T19:08:02.131Z,64.60
2022-10-12T19:13:03.846Z,88.80
2022-10-12T19:18:10.029Z,80.80
2022-10-12T19:23:11.686Z,67.80
2022-10-12T19:28:13.463Z,62.20
2022-10-12T19:33:18.212Z,54.80
2022-10-12T19:38:21.856Z,56.60
2022-10-12T19:43:23.885Z,63.20
2022-10-12T19:48:27.227Z,56.10
2022-10-12T19:53:29.793Z,50.50
2022-10-12T19:58:32.639Z,47.00
2022-10-12T20:03:35.513Z,43.10
2022-10-12T20:08:38.862Z,39.30
2022-10-12T20:13:40.658Z,36.80
2022-10-12T20:18:42.810Z,36.60
2022-10-12T20:23:45.427Z,33.60
2022-10-12T20:28:47.919Z,29.90
2022-10-12T20:33:53.708Z,30.50
2022-10-12T20:38:57.601Z,27.40
2022-10-12T20:44:00.922Z,31.50
2022-10-12T20:49:04.123Z,33.70
2022-10-12T20:54:08.790Z,30.00
2022-10-12T20:59:11.371Z,30.10
2022-10-12T21:04:13.837Z,33.10
2022-10-12T21:09:16.346Z,33.40
2022-10-12T21:14:18.043Z,35.80
2022-10-12T21:19:20.597Z,39.40
2022-10-12T21:24:22.366Z,37.50
2022-10-12T21:29:24.185Z,36.60
2022-10-12T21:34:26.336Z,36.00
2022-10-12T21:39:29.478Z,37.10
2022-10-12T21:44:31.217Z,36.70
2022-10-12T21:49:33.250Z,34.50
2022-10-12T21:54:34.881Z,34.50
2022-10-12T21:59:36.881Z,41.10
2022-10-12T22:04:38.689Z,42.60
2022-10-12T22:09:40.566Z,45.80
2022-10-12T22:14:42.561Z,44.40
2022-10-12T22:19:45.031Z,48.10
2022-10-12T22:24:47.133Z,44.10
2022-10-12T22:29:48.944Z,47.70
2022-10-12T22:34:52.219Z,39.80
2022-10-12T22:39:54.389Z,37.80
2022-10-12T22:44:56.749Z,39.60
2022-10-12T22:49:58.800Z,35.20
2022-10-12T22:55:00.913Z,30.30
2022-10-12T23:00:02.783Z,33.90
2022-10-12T23:05:07.022Z,34.20
2022-10-12T23:10:09.216Z,37.50
2022-10-12T23:15:12.308Z,33.50
2022-10-12T23:20:16.032Z,32.00
2022-10-12T23:25:20.987Z,37.40
2022-10-12T23:30:29.204Z,40.10
2022-10-12T23:35:32.984Z,41.60
2022-10-12T23:40:39.413Z,44.90
2022-10-12T23:45:43.888Z,44.10
2022-10-12T23:50:47.329Z,46.70
2022-10-12T23:55:50.658Z,44.70
